Time;durP1;ratioP1;P1;durP2;ratioP2;P2;SDS_P1;SDS_P2;PMS_P1;PMS_P2;Temp;Humidity;BMP_temperature;BMP_pressure;BME280_temperature;BME280_humidity;BME280_pressure;Samples;Min_cycle;Max_cycle;Signal;HPM_P1;HPM_P2
2023/03/10 00:02:25;;;;;;;2.80;1.95;;;8.60;60.80;;;;;;5056040;28;20024;-83
2023/03/10 00:04:51;;;;;;;2.33;1.80;;;8.70;60.70;;;;;;5058721;28;20025;-83
2023/03/10 00:07:18;;;;;;;3.03;2.00;;;8.70;60.70;;;;;;5031203;28;20024;-84
2023/03/10 00:09:44;;;;;;;2.25;1.67;;;8.70;60.60;;;;;;5044138;28;20028;-85
2023/03/10 00:12:10;;;;;;;2.88;1.88;;;8.70;60.50;;;;;;5045439;28;20742;-83
2023/03/10 00:14:37;;;;;;;2.90;2.00;;;8.70;60.50;;;;;;5024908;28;20125;-82
2023/03/10 00:17:03;;;;;;;2.80;2.13;;;8.60;60.50;;;;;;5058533;28;20040;-82
2023/03/10 00:19:29;;;;;;;2.00;1.58;;;8.70;60.40;;;;;;5040009;28;20160;-82
2023/03/10 00:21:55;;;;;;;2.83;1.80;;;8.70;60.40;;;;;;5030713;28;20385;-83
2023/03/10 00:24:21;;;;;;;3.42;1.73;;;8.60;60.20;;;;;;5057406;28;20056;-83
2023/03/10 00:26:51;;;;;;;3.53;1.80;;;8.60;60.10;;;;;;5025708;28;20032;-83
2023/03/10 00:29:17;;;;;;;3.03;2.10;;;8.70;60.10;;;;;;5008216;28;20045;-83
2023/03/10 00:31:44;;;;;;;2.63;1.98;;;8.60;60.00;;;;;;5038288;28;20373;-83
2023/03/10 00:34:11;;;;;;;3.33;2.03;;;8.70;60.00;;;;;;5039537;28;20041;-83
2023/03/10 00:36:39;;;;;;;3.28;1.90;;;8.60;60.00;;;;;;5033880;28;20668;-84
2023/03/10 00:39:06;;;;;;;2.17;1.77;;;8.70;59.90;;;;;;5044543;28;20528;-82
2023/03/10 00:41:35;;;;;;;2.97;1.60;;;8.60;59.80;;;;;;5030277;28;20078;-83
2023/03/10 00:44:02;;;;;;;2.40;1.45;;;8.70;59.80;;;;;;5030734;28;20064;-82
2023/03/10 00:46:29;;;;;;;4.72;1.80;;;8.70;59.80;;;;;;5027732;28;20473;-82
2023/03/10 00:48:55;;;;;;;2.70;1.60;;;8.60;59.70;;;;;;5029627;28;20036;-84
2023/03/10 00:51:22;;;;;;;2.60;1.80;;;8.60;59.70;;;;;;5029888;28;20041;-84
2023/03/10 00:53:49;;;;;;;2.47;1.77;;;8.60;59.60;;;;;;5047721;28;20128;-85
2023/03/10 00:56:23;;;;;;;2.30;1.80;;;8.70;59.60;;;;;;5042229;28;20055;-84
2023/03/10 00:58:51;;;;;;;2.17;1.70;;;8.60;59.50;;;;;;5038738;28;20049;-84
2023/03/10 01:01:27;;;;;;;2.00;1.80;;;8.70;59.50;;;;;;5057234;28;20658;-86
2023/03/10 01:03:55;;;;;;;2.15;1.50;;;8.60;59.50;;;;;;5042834;28;20037;-85
2023/03/10 01:06:22;;;;;;;3.65;1.80;;;8.70;59.50;;;;;;5028519;28;20033;-83
2023/03/10 01:08:48;;;;;;;2.83;2.05;;;8.60;59.50;;;;;;5045022;28;20035;-85
2023/03/10 01:11:20;;;;;;;1.70;1.60;;;8.70;59.60;;;;;;5057723;28;20656;-83
2023/03/10 01:13:46;;;;;;;3.05;1.67;;;8.60;60.00;;;;;;5060255;28;20423;-84
2023/03/10 01:16:12;;;;;;;1.90;1.40;;;8.60;59.40;;;;;;5043137;28;20037;-84
2023/03/10 01:18:39;;;;;;;1.92;1.48;;;8.60;59.40;;;;;;5042131;28;20093;-84
2023/03/10 01:21:06;;;;;;;2.70;1.85;;;8.60;59.40;;;;;;5047808;28;20105;-84
2023/03/10 01:23:32;;;;;;;2.97;1.88;;;8.60;59.40;;;;;;5048759;28;20042;-84
2023/03/10 01:25:58;;;;;;;2.25;1.70;;;8.60;59.30;;;;;;5060517;28;20124;-84
2023/03/10 01:28:24;;;;;;;1.88;1.70;;;8.60;59.30;;;;;;5046284;28;20040;-83
2023/03/10 01:30:50;;;;;;;2.63;1.92;;;8.60;59.30;;;;;;5049568;28;20503;-84
2023/03/10 01:33:17;;;;;;;1.73;1.60;;;8.60;59.20;;;;;;5029266;28;20032;-84
2023/03/10 01:35:43;;;;;;;2.80;1.85;;;8.60;59.10;;;;;;5060554;28;20035;-83
2023/03/10 01:38:10;;;;;;;5.65;2.08;;;8.60;59.10;;;;;;5049483;28;20078;-84
2023/03/10 01:40:37;;;;;;;1.70;1.55;;;8.60;59.10;;;;;;5060379;28;20559;-83
2023/03/10 01:43:18;;;;;;;2.65;1.60;;;8.60;59.10;;;;;;5029235;28;20040;-83
2023/03/10 01:45:44;;;;;;;3.95;1.70;;;8.60;59.10;;;;;;5032967;28;20036;-84
2023/03/10 01:48:12;;;;;;;1.50;1.40;;;8.60;59.00;;;;;;5031692;28;20364;-83
2023/03/10 01:50:39;;;;;;;1.95;1.60;;;8.60;59.00;;;;;;5047921;28;20047;-83
2023/03/10 01:53:06;;;;;;;2.28;1.60;;;8.60;58.90;;;;;;5046148;28;20064;-84
2023/03/10 01:55:35;;;;;;;2.72;1.40;;;8.60;58.90;;;;;;5060366;28;20032;-84
2023/03/10 01:58:03;;;;;;;2.00;1.45;;;8.60;58.90;;;;;;5043008;28;20037;-82
2023/03/10 02:00:29;;;;;;;2.13;1.67;;;8.60;58.80;;;;;;5016732;28;20090;-79
2023/03/10 02:03:20;;;;;;;2.30;1.80;;;8.60;58.80;;;;;;5060042;28;20033;-79
2023/03/10 02:05:58;;;;;;;2.25;2.05;;;8.60;58.80;;;;;;5049687;28;20036;-79
2023/03/10 02:08:29;;;;;;;2.25;1.42;;;8.60;58.70;;;;;;5032020;28;20044;-79
2023/03/10 02:10:55;;;;;;;1.85;1.40;;;8.60;58.60;;;;;;5043666;28;20044;-79
2023/03/10 02:13:21;;;;;;;1.88;1.63;;;8.60;58.60;;;;;;5059436;28;20040;-79
2023/03/10 02:15:48;;;;;;;2.85;1.67;;;8.60;58.60;;;;;;5049933;28;20040;-79
2023/03/10 02:18:17;;;;;;;1.90;1.70;;;8.60;58.60;;;;;;5049884;28;20384;-79
2023/03/10 02:21:03;;;;;;;1.88;1.40;;;8.60;58.60;;;;;;5042105;28;20035;-80
2023/03/10 02:23:57;;;;;;;2.67;1.70;;;8.60;58.60;;;;;;5031637;28;20041;-80
2023/03/10 02:26:32;;;;;;;1.50;1.40;;;8.60;58.70;;;;;;5035283;28;20082;-80
2023/03/10 02:29:00;;;;;;;1.60;1.50;;;8.60;58.50;;;;;;5032565;28;20043;-82
2023/03/10 02:31:28;;;;;;;1.70;1.60;;;8.60;58.50;;;;;;5058333;28;20044;-81
2023/03/10 02:33:54;;;;;;;2.53;1.70;;;8.60;58.40;;;;;;5032202;28;21108;-81
2023/03/10 02:36:22;;;;;;;1.75;1.60;;;8.60;58.30;;;;;;5049513;28;20570;-81
2023/03/10 02:38:49;;;;;;;2.10;1.52;;;8.60;58.20;;;;;;5049481;28;20577;-80
2023/03/10 02:41:20;;;;;;;1.38;1.27;;;8.60;58.10;;;;;;5058317;28;20576;-81
2023/03/10 02:43:47;;;;;;;2.47;1.50;;;8.60;58.00;;;;;;5048415;28;20048;-80
2023/03/10 02:46:20;;;;;;;1.77;1.40;;;8.60;57.90;;;;;;5017762;28;20041;-78
2023/03/10 02:48:46;;;;;;;1.75;1.48;;;8.50;57.70;;;;;;5042915;28;20417;-79
2023/03/10 02:51:29;;;;;;;1.50;1.40;;;8.60;57.70;;;;;;5043290;28;20040;-79
2023/03/10 02:53:59;;;;;;;1.92;1.50;;;8.50;57.50;;;;;;5048533;28;20033;-79
2023/03/10 02:56:26;;;;;;;2.28;1.38;;;8.60;58.10;;;;;;5032527;28;20040;-79
2023/03/10 02:58:54;;;;;;;1.88;1.40;;;8.60;57.50;;;;;;5044752;28;20036;-79
2023/03/10 03:01:20;;;;;;;1.55;1.45;;;8.50;57.50;;;;;;5030339;28;20036;-79
2023/03/10 03:03:47;;;;;;;1.50;1.33;;;8.60;57.30;;;;;;5033254;28;20033;-79
2023/03/10 03:06:14;;;;;;;1.60;1.50;;;8.50;57.30;;;;;;5044108;28;20052;-79
2023/03/10 03:08:40;;;;;;;1.95;1.52;;;8.50;57.20;;;;;;5048125;28;20480;-79
2023/03/10 03:11:09;;;;;;;1.60;1.50;;;8.50;57.20;;;;;;5032179;28;20586;-79
2023/03/10 03:13:35;;;;;;;1.60;1.50;;;8.50;57.20;;;;;;5031590;28;20507;-79
2023/03/10 03:16:03;;;;;;;2.03;1.70;;;8.50;57.10;;;;;;5047995;28;20093;-79
2023/03/10 03:18:29;;;;;;;2.47;1.75;;;8.50;57.10;;;;;;5041190;28;20029;-80
2023/03/10 03:20:55;;;;;;;2.15;1.58;;;8.50;57.10;;;;;;5043703;28;20123;-78
2023/03/10 03:23:22;;;;;;;2.80;1.73;;;8.50;57.00;;;;;;5058848;28;20040;-80
2023/03/10 03:25:49;;;;;;;2.20;1.40;;;8.50;56.90;;;;;;5057544;28;20242;-79
2023/03/10 03:28:18;;;;;;;1.73;1.30;;;8.50;57.00;;;;;;5045212;28;20473;-82
2023/03/10 03:30:45;;;;;;;1.63;1.23;;;8.50;57.00;;;;;;5044847;28;20120;-82
2023/03/10 03:33:11;;;;;;;1.88;1.45;;;8.50;57.10;;;;;;5043922;28;20539;-84
2023/03/10 03:35:42;;;;;;;1.55;1.45;;;8.50;57.20;;;;;;5043093;28;20028;-79
2023/03/10 03:38:09;;;;;;;1.65;1.20;;;8.50;57.20;;;;;;5044809;28;20277;-79
2023/03/10 03:40:37;;;;;;;1.40;1.30;;;8.50;57.30;;;;;;5031179;28;20033;-79
2023/03/10 03:43:05;;;;;;;3.38;1.50;;;8.50;57.30;;;;;;5056725;28;20074;-80
2023/03/10 03:45:32;;;;;;;1.25;1.15;;;8.50;57.30;;;;;;5033498;28;20385;-79
2023/03/10 03:47:59;;;;;;;1.30;1.20;;;8.40;57.20;;;;;;5021538;28;20030;-79
2023/03/10 03:50:26;;;;;;;1.50;1.40;;;8.50;57.30;;;;;;5040945;28;20032;-79
2023/03/10 03:52:56;;;;;;;1.83;1.50;;;8.40;57.10;;;;;;5027989;28;20041;-77
2023/03/10 03:55:27;;;;;;;3.17;1.42;;;8.50;57.20;;;;;;5043951;28;20036;-77
2023/03/10 03:57:54;;;;;;;1.67;1.50;;;8.50;57.10;;;;;;5039118;28;20029;-78
2023/03/10 04:00:23;;;;;;;1.60;1.48;;;8.50;57.10;;;;;;5026565;28;20040;-77
2023/03/10 04:02:55;;;;;;;1.48;1.38;;;8.40;56.90;;;;;;5036801;28;20037;-76
2023/03/10 04:05:22;;;;;;;1.83;1.63;;;8.40;56.90;;;;;;5020598;28;20673;-77
2023/03/10 04:07:48;;;;;;;1.95;1.40;;;8.40;56.80;;;;;;5041261;28;20052;-79
2023/03/10 04:10:18;;;;;;;1.65;1.35;;;8.40;56.80;;;;;;5011231;28;20160;-80
2023/03/10 04:12:44;;;;;;;2.75;1.50;;;8.40;56.80;;;;;;5041806;28;20041;-77
2023/03/10 04:15:10;;;;;;;1.95;1.60;;;8.40;56.80;;;;;;5036866;28;20072;-78
2023/03/10 04:17:36;;;;;;;1.45;1.35;;;8.40;56.60;;;;;;5043488;28;20044;-76
2023/03/10 04:20:07;;;;;;;2.22;1.90;;;8.40;56.40;;;;;;5026116;28;20044;-80
2023/03/10 04:22:34;;;;;;;1.83;1.60;;;8.40;56.40;;;;;;5036677;28;20417;-80
2023/03/10 04:25:01;;;;;;;1.90;1.70;;;8.40;56.30;;;;;;5037273;28;20046;-79
2023/03/10 04:27:27;;;;;;;1.70;1.60;;;8.40;56.30;;;;;;5023863;28;20040;-79
2023/03/10 04:29:53;;;;;;;2.17;1.50;;;8.40;56.20;;;;;;5008501;28;20029;-80
2023/03/10 04:32:19;;;;;;;3.53;1.50;;;8.40;56.20;;;;;;5009121;28;20691;-79
2023/03/10 04:34:45;;;;;;;1.90;1.42;;;8.40;56.20;;;;;;5039467;28;20044;-80
2023/03/10 04:37:11;;;;;;;1.48;1.33;;;8.40;56.30;;;;;;5036876;28;20036;-75
2023/03/10 04:39:37;;;;;;;1.67;1.58;;;8.40;56.20;;;;;;5043082;28;20048;-79
2023/03/10 04:42:04;;;;;;;1.48;1.38;;;8.40;56.90;;;;;;5040883;28;20044;-79
2023/03/10 04:44:30;;;;;;;1.50;1.40;;;8.40;56.40;;;;;;5041124;28;20036;-76
2023/03/10 04:46:58;;;;;;;2.05;1.58;;;8.40;56.50;;;;;;5041723;28;20060;-77
2023/03/10 04:49:24;;;;;;;2.10;1.88;;;8.40;56.80;;;;;;5043797;28;20066;-79
2023/03/10 04:51:50;;;;;;;2.30;1.73;;;8.30;57.20;;;;;;5026311;28;20037;-79
2023/03/10 04:54:17;;;;;;;3.17;1.75;;;8.40;57.60;;;;;;5027743;28;20118;-78
2023/03/10 04:56:43;;;;;;;3.85;1.80;;;8.40;58.00;;;;;;5044879;28;20036;-77
2023/03/10 04:59:09;;;;;;;2.28;1.65;;;8.40;58.30;;;;;;5044745;28;20033;-81
2023/03/10 05:01:35;;;;;;;2.30;1.75;;;8.40;58.50;;;;;;5045988;28;20511;-78
2023/03/10 05:04:04;;;;;;;2.60;1.80;;;8.40;58.90;;;;;;5055549;28;20503;-79
2023/03/10 05:06:32;;;;;;;5.22;2.03;;;8.40;59.10;;;;;;5038265;28;20040;-80
2023/03/10 05:09:20;;;;;;;3.78;1.75;;;8.30;59.20;;;;;;5045883;28;20037;-80
2023/03/10 05:11:47;;;;;;;3.15;2.10;;;8.30;59.30;;;;;;5045695;28;20039;-79
2023/03/10 05:14:13;;;;;;;2.15;1.77;;;8.30;59.40;;;;;;5044256;28;20036;-78
2023/03/10 05:16:39;;;;;;;3.20;1.70;;;8.40;59.50;;;;;;5055014;28;20037;-78
2023/03/10 05:19:06;;;;;;;2.25;1.80;;;8.30;59.40;;;;;;5040532;28;20492;-78
2023/03/10 05:21:33;;;;;;;3.58;2.15;;;8.40;59.50;;;;;;5042864;28;20033;-78
2023/03/10 05:24:00;;;;;;;3.92;2.20;;;8.40;59.50;;;;;;5042975;28;20037;-78
2023/03/10 05:26:27;;;;;;;5.43;1.80;;;8.30;59.50;;;;;;5039688;28;20036;-79
2023/03/10 05:28:53;;;;;;;2.85;1.98;;;8.40;59.70;;;;;;5043609;28;20029;-79
2023/03/10 05:31:27;;;;;;;3.05;1.80;;;8.40;59.70;;;;;;5043387;28;20044;-79
2023/03/10 05:34:00;;;;;;;3.45;1.98;;;8.40;59.70;;;;;;5043020;28;20032;-79
2023/03/10 05:36:26;;;;;;;3.30;2.00;;;8.40;59.60;;;;;;5038768;28;20536;-79
2023/03/10 05:38:53;;;;;;;2.65;1.83;;;8.40;59.70;;;;;;5041098;28;20051;-79
2023/03/10 05:41:19;;;;;;;1.70;1.60;;;8.40;59.80;;;;;;5055792;28;20089;-78
2023/03/10 05:43:49;;;;;;;2.10;1.90;;;8.40;59.60;;;;;;5012612;28;20033;-77
2023/03/10 05:46:16;;;;;;;3.92;2.08;;;8.40;59.60;;;;;;5044889;28;20090;-77
2023/03/10 05:48:48;;;;;;;3.03;1.95;;;8.40;60.00;;;;;;5046149;28;20534;-76
2023/03/10 05:51:15;;;;;;;2.67;1.95;;;8.30;59.10;;;;;;5038757;28;20731;-77
2023/03/10 05:53:42;;;;;;;4.78;2.00;;;8.40;59.30;;;;;;5043449;28;20526;-76
2023/03/10 05:56:16;;;;;;;4.78;1.98;;;8.40;63.70;;;;;;5046159;28;20423;-77
2023/03/10 05:58:45;;;;;;;2.28;1.90;;;8.40;63.00;;;;;;5029251;28;20041;-76
2023/03/10 06:01:14;;;;;;;2.53;1.90;;;8.40;62.20;;;;;;5058739;28;20179;-78
2023/03/10 06:03:40;;;;;;;3.17;1.58;;;8.40;61.60;;;;;;5058028;28;20124;-78
2023/03/10 06:06:06;;;;;;;1.50;1.40;;;8.50;68.80;;;;;;5059173;28;20040;-79
2023/03/10 06:08:33;;;;;;;2.65;1.20;;;8.50;70.10;;;;;;5060061;28;20666;-79
2023/03/10 06:10:59;;;;;;;4.22;1.55;;;8.60;70.90;;;;;;5057917;28;20040;-80
2023/03/10 06:13:25;;;;;;;3.90;1.45;;;8.70;71.60;;;;;;5059012;28;20060;-80
2023/03/10 06:15:54;;;;;;;3.97;1.55;;;8.80;71.80;;;;;;5056457;28;20037;-80
2023/03/10 06:18:20;;;;;;;9.50;3.70;;;8.90;72.20;;;;;;5043022;28;20036;-81
2023/03/10 06:20:47;;;;;;;3.75;2.10;;;9.00;73.30;;;;;;5059850;28;20037;-80
2023/03/10 06:23:14;;;;;;;3.45;2.03;;;9.10;73.00;;;;;;5059109;28;20052;-81
2023/03/10 06:25:41;;;;;;;6.07;2.05;;;9.20;73.10;;;;;;5045635;28;20659;-80
2023/03/10 06:28:07;;;;;;;2.65;1.73;;;9.30;73.80;;;;;;5059638;28;20032;-81
2023/03/10 06:30:33;;;;;;;4.10;1.88;;;9.40;73.90;;;;;;5032796;28;20120;-81
2023/03/10 06:33:00;;;;;;;5.45;2.45;;;9.50;74.10;;;;;;5046520;28;20571;-79
2023/03/10 06:35:26;;;;;;;3.17;1.80;;;9.70;73.90;;;;;;5058445;28;20082;-80
2023/03/10 06:37:52;;;;;;;3.97;1.75;;;9.70;73.40;;;;;;5046822;28;20052;-83
2023/03/10 06:40:18;;;;;;;6.13;1.80;;;9.90;72.70;;;;;;5044595;28;20099;-84
2023/03/10 06:42:45;;;;;;;3.53;1.50;;;10.00;73.50;;;;;;5029869;28;20032;-80
2023/03/10 06:45:15;;;;;;;3.70;2.00;;;10.00;68.90;;;;;;5059017;28;20051;-89
2023/03/10 06:47:43;;;;;;;4.30;1.80;;;10.10;67.00;;;;;;5043370;28;20032;-84
2023/03/10 06:50:11;;;;;;;4.75;1.80;;;10.10;66.50;;;;;;5032328;28;20067;-86
2023/03/10 06:52:36;;;;;;;2.40;2.20;;;10.10;66.10;;;;;;5029533;28;21804;-86
2023/03/10 06:55:03;;;;;;;2.05;1.88;;;10.20;66.30;;;;;;5044485;28;20041;-87
2023/03/10 06:57:29;;;;;;;2.65;1.83;;;10.20;65.80;;;;;;5058131;28;20039;-89
2023/03/10 06:59:55;;;;;;;6.57;2.78;;;10.20;65.30;;;;;;5044927;28;20512;-83
2023/03/10 07:02:21;;;;;;;5.72;2.70;;;10.20;64.90;;;;;;5041442;28;20575;-85
2023/03/10 07:04:47;;;;;;;11.90;3.58;;;10.20;64.70;;;;;;5048317;28;20116;-81
2023/03/10 07:07:13;;;;;;;26.80;5.78;;;10.30;64.40;;;;;;5044365;28;20137;-81
2023/03/10 07:09:39;;;;;;;24.67;5.28;;;10.30;63.90;;;;;;5058418;28;20522;-82
2023/03/10 07:12:06;;;;;;;32.20;4.93;;;10.40;64.30;;;;;;5045241;28;20070;-83
2023/03/10 07:14:32;;;;;;;25.27;5.53;;;10.40;63.50;;;;;;5059571;28;20039;-80
2023/03/10 07:16:57;;;;;;;30.35;6.20;;;10.40;63.10;;;;;;5059184;28;20037;-81
2023/03/10 07:19:24;;;;;;;22.02;5.38;;;10.40;63.10;;;;;;5044410;28;20036;-86
2023/03/10 07:21:50;;;;;;;26.15;5.53;;;10.50;62.30;;;;;;5050066;28;20447;-80
2023/03/10 07:24:16;;;;;;;26.00;6.15;;;10.50;62.80;;;;;;5046131;28;20036;-82
2023/03/10 07:26:43;;;;;;;32.97;6.65;;;10.60;59.40;;;;;;5057096;28;20057;-78
2023/03/10 07:29:09;;;;;;;37.08;7.18;;;10.60;58.40;;;;;;5058693;28;20126;-80
2023/03/10 07:31:36;;;;;;;33.88;7.10;;;10.50;56.20;;;;;;5057941;28;20033;-80
2023/03/10 07:34:02;;;;;;;24.27;6.43;;;10.50;56.40;;;;;;5026992;28;20479;-80
2023/03/10 07:36:28;;;;;;;38.38;7.20;;;10.40;53.50;;;;;;5043356;28;20134;-76
2023/03/10 07:38:55;;;;;;;34.28;8.10;;;10.40;52.80;;;;;;5057397;28;20494;-82
2023/03/10 07:41:21;;;;;;;30.92;6.63;;;10.30;53.80;;;;;;5058543;28;20132;-77
2023/03/10 07:43:51;;;;;;;22.55;6.90;;;10.30;53.80;;;;;;5057749;28;20039;-80
2023/03/10 07:46:17;;;;;;;31.63;6.25;;;10.20;53.00;;;;;;5057447;28;20047;-77
2023/03/10 07:48:43;;;;;;;31.48;6.72;;;10.20;53.20;;;;;;5049512;28;20037;-78
2023/03/10 07:51:11;;;;;;;21.20;5.90;;;10.10;54.20;;;;;;5056068;28;20036;-79
2023/03/10 07:53:37;;;;;;;24.13;6.25;;;10.00;52.30;;;;;;5057949;28;20518;-81
2023/03/10 07:56:05;;;;;;;21.58;4.50;;;10.00;53.50;;;;;;5039495;28;20534;-80
2023/03/10 07:58:31;;;;;;;20.52;4.45;;;9.90;51.30;;;;;;5031331;28;20111;-89
2023/03/10 08:00:59;;;;;;;28.75;5.20;;;9.90;51.30;;;;;;5057618;28;20163;-84
2023/03/10 08:03:26;;;;;;;18.25;4.63;;;9.80;51.30;;;;;;5030114;28;20044;-83
2023/03/10 08:05:52;;;;;;;13.57;4.15;;;9.80;52.00;;;;;;5015317;28;20032;-82
2023/03/10 08:08:18;;;;;;;15.02;4.00;;;9.70;50.20;;;;;;5056633;28;20065;-83
2023/03/10 08:10:44;;;;;;;13.95;3.80;;;9.70;51.20;;;;;;5056071;28;20535;-80
2023/03/10 08:13:10;;;;;;;11.27;4.05;;;9.60;50.20;;;;;;5029519;28;20043;-85
2023/03/10 08:15:39;;;;;;;12.30;3.70;;;9.60;51.40;;;;;;5056722;28;20040;-74
2023/03/10 08:18:07;;;;;;;18.13;4.25;;;9.60;50.90;;;;;;5041515;28;20067;-76
2023/03/10 08:20:35;;;;;;;16.17;4.28;;;9.50;51.30;;;;;;5057725;28;20071;-76
2023/03/10 08:23:02;;;;;;;8.32;3.35;;;9.50;51.50;;;;;;5040700;28;20074;-75
2023/03/10 08:25:28;;;;;;;10.38;3.33;;;9.40;50.20;;;;;;5045331;28;20385;-75
2023/03/10 08:27:54;;;;;;;9.68;3.38;;;9.40;50.10;;;;;;5036270;28;20040;-75
2023/03/10 08:30:20;;;;;;;8.00;2.85;;;9.30;49.60;;;;;;5023674;28;20609;-76
2023/03/10 08:32:46;;;;;;;10.23;3.40;;;9.30;49.10;;;;;;5056155;28;20044;-75
2023/03/10 08:35:12;;;;;;;8.00;3.33;;;9.20;48.80;;;;;;5042065;28;20040;-75
2023/03/10 08:37:38;;;;;;;7.22;3.28;;;9.20;49.80;;;;;;5056077;28;20029;-77
2023/03/10 08:40:06;;;;;;;7.72;2.78;;;9.10;50.00;;;;;;5056658;28;20061;-75
2023/03/10 08:42:35;;;;;;;8.52;2.78;;;9.10;50.30;;;;;;5055367;28;20048;-76
2023/03/10 08:45:02;;;;;;;10.52;3.17;;;9.10;51.20;;;;;;5040743;28;20480;-76
2023/03/10 08:47:28;;;;;;;4.85;2.38;;;9.10;51.50;;;;;;5044468;28;20028;-76
2023/03/10 08:49:54;;;;;;;7.70;3.00;;;9.00;51.00;;;;;;5038630;28;20098;-76
2023/03/10 08:52:20;;;;;;;9.00;2.60;;;9.00;51.10;;;;;;5037807;28;20045;-75
2023/03/10 08:54:46;;;;;;;5.05;2.13;;;9.00;50.60;;;;;;5055233;28;20040;-75
2023/03/10 08:57:12;;;;;;;4.97;2.25;;;9.00;50.30;;;;;;5044056;28;20091;-75
2023/03/10 08:59:38;;;;;;;7.53;2.30;;;8.90;49.60;;;;;;5056219;28;20037;-74
2023/03/10 09:02:04;;;;;;;8.55;2.58;;;8.90;52.30;;;;;;5055627;28;20037;-74
2023/03/10 09:04:30;;;;;;;10.18;2.28;;;9.00;54.60;;;;;;5055280;28;20048;-74
2023/03/10 09:06:56;;;;;;;5.80;2.10;;;9.00;55.70;;;;;;5045095;28;20086;-74
2023/03/10 09:09:22;;;;;;;3.45;1.63;;;9.10;56.30;;;;;;5041276;28;20033;-74
2023/03/10 09:11:48;;;;;;;5.85;1.90;;;9.20;56.90;;;;;;5056554;28;20036;-77
2023/03/10 09:14:17;;;;;;;7.43;2.22;;;9.30;57.80;;;;;;5054797;28;20025;-78
2023/03/10 09:16:43;;;;;;;4.93;2.08;;;9.40;56.50;;;;;;5023727;28;20037;-77
2023/03/10 09:19:09;;;;;;;8.07;2.40;;;9.50;56.00;;;;;;5055275;28;20033;-75
2023/03/10 09:21:35;;;;;;;12.30;2.53;;;9.50;55.50;;;;;;5040221;28;20368;-77
2023/03/10 09:24:02;;;;;;;5.47;2.50;;;9.50;55.60;;;;;;5055183;28;20036;-76
2023/03/10 09:26:28;;;;;;;6.55;2.10;;;9.60;55.80;;;;;;5056171;28;20036;-76
2023/03/10 09:28:54;;;;;;;10.10;2.47;;;9.60;55.50;;;;;;5027548;28;20028;-77
2023/03/10 09:31:23;;;;;;;7.72;2.65;;;9.60;55.80;;;;;;5037854;28;20423;-78
2023/03/10 09:33:49;;;;;;;7.45;2.55;;;9.70;55.50;;;;;;5060040;28;20028;-77
2023/03/10 09:36:16;;;;;;;5.75;2.47;;;9.70;55.80;;;;;;5060248;28;21187;-78
2023/03/10 09:38:43;;;;;;;9.13;3.08;;;9.70;56.00;;;;;;5059888;28;20033;-77
2023/03/10 09:41:40;;;;;;;5.55;2.47;;;9.70;56.10;;;;;;5047559;28;20132;-76
2023/03/10 09:44:31;;;;;;;8.65;2.42;;;9.70;55.90;;;;;;5060063;28;20033;-77
2023/03/10 09:47:22;;;;;;;12.90;2.60;;;9.80;55.70;;;;;;5042731;28;20571;-77
2023/03/10 09:49:57;;;;;;;6.20;2.35;;;9.80;55.50;;;;;;5045130;28;20515;-77
2023/03/10 09:52:23;;;;;;;10.30;2.75;;;9.80;55.40;;;;;;5057533;28;20049;-77
2023/03/10 09:55:05;;;;;;;4.43;2.25;;;9.80;55.20;;;;;;5042296;28;20035;-79
2023/03/10 09:57:32;;;;;;;7.70;2.25;;;9.80;55.00;;;;;;5059051;28;20036;-77
2023/03/10 10:00:04;;;;;;;5.10;2.30;;;9.80;54.90;;;;;;5058995;28;20039;-77
2023/03/10 10:02:38;;;;;;;5.05;2.65;;;9.90;55.10;;;;;;5042960;28;20085;-77
2023/03/10 10:05:18;;;;;;;5.00;2.30;;;9.80;55.10;;;;;;5059756;28;20060;-76
2023/03/10 10:07:53;;;;;;;8.98;2.50;;;9.80;55.00;;;;;;5045548;28;20028;-77
2023/03/10 10:10:23;;;;;;;4.25;2.50;;;9.80;55.00;;;;;;5040453;28;20736;-84
2023/03/10 10:12:54;;;;;;;10.40;2.30;;;9.90;55.00;;;;;;5044698;28;20040;-82
2023/03/10 10:15:25;;;;;;;8.48;2.65;;;9.90;55.00;;;;;;5057623;28;20036;-81
2023/03/10 10:18:04;;;;;;;8.88;2.38;;;9.90;55.40;;;;;;5059427;28;20040;-80
2023/03/10 10:21:08;;;;;;;13.07;3.55;;;9.90;55.50;;;;;;5048519;28;20052;-78
2023/03/10 10:24:00;;;;;;;11.52;2.95;;;9.90;55.80;;;;;;4986961;28;20527;-80
2023/03/10 10:26:27;;;;;;;15.50;3.03;;;9.90;56.10;;;;;;4983741;28;20038;-78
2023/03/10 10:29:05;;;;;;;12.15;2.83;;;9.90;56.50;;;;;;4970099;28;20039;-78
2023/03/10 10:31:32;;;;;;;19.92;3.03;;;9.90;56.60;;;;;;4986207;28;20418;-80
2023/03/10 10:34:21;;;;;;;14.30;4.60;;;9.90;58.00;;;;;;4970550;28;20042;-83
2023/03/10 10:36:50;;;;;;;14.88;3.78;;;10.00;57.60;;;;;;4974580;28;20039;-80
2023/03/10 10:39:46;;;;;;;10.55;2.95;;;9.90;57.20;;;;;;4985830;28;20398;-78
2023/03/10 10:42:24;;;;;;;15.25;4.00;;;9.90;57.00;;;;;;4985248;28;20034;-82
2023/03/10 10:45:05;;;;;;;12.15;3.25;;;10.00;57.40;;;;;;4958881;28;20512;-82
2023/03/10 10:47:33;;;;;;;8.80;2.85;;;10.00;56.80;;;;;;4985030;28;20552;-81
2023/03/10 10:50:20;;;;;;;12.20;3.33;;;10.00;56.50;;;;;;4985800;28;20038;-83
2023/03/10 10:53:12;;;;;;;13.68;3.10;;;10.00;56.60;;;;;;4986230;28;20046;-85
2023/03/10 10:55:39;;;;;;;11.57;2.90;;;10.00;56.40;;;;;;4986203;28;20529;-84
2023/03/10 10:58:27;;;;;;;8.55;3.22;;;10.00;56.10;;;;;;4985806;28;20070;-84
2023/03/10 11:00:57;;;;;;;10.85;2.45;;;10.00;56.00;;;;;;5042852;28;20040;-82
2023/03/10 11:03:31;;;;;;;14.88;3.20;;;10.00;55.80;;;;;;5047285;28;20033;-82
2023/03/10 11:05:59;;;;;;;8.73;2.30;;;10.00;55.80;;;;;;5042825;28;20527;-81
2023/03/10 11:08:36;;;;;;;12.43;2.85;;;10.00;55.80;;;;;;5034327;28;20032;-78
2023/03/10 11:11:25;;;;;;;9.90;2.47;;;10.00;55.50;;;;;;5041586;28;20076;-82
2023/03/10 11:14:09;;;;;;;6.57;2.35;;;10.00;55.50;;;;;;4985094;28;20081;-83
2023/03/10 11:17:05;;;;;;;13.27;3.08;;;10.00;55.80;;;;;;4985875;28;20433;-82
2023/03/10 11:19:50;;;;;;;13.18;2.67;;;10.00;55.70;;;;;;4985634;28;20529;-75
2023/03/10 11:22:40;;;;;;;11.68;2.80;;;10.00;55.50;;;;;;4985155;28;20034;-76
2023/03/10 11:25:30;;;;;;;11.50;2.25;;;10.00;53.90;;;;;;4985766;28;20133;-75
2023/03/10 11:28:19;;;;;;;7.85;2.20;;;10.00;52.90;;;;;;4984609;28;20042;-78
2023/03/10 11:30:50;;;;;;;6.18;2.17;;;9.90;51.80;;;;;;4968958;28;20030;-76
2023/03/10 11:33:32;;;;;;;5.15;2.30;;;9.90;50.90;;;;;;4985466;28;20137;-79
2023/03/10 11:36:29;;;;;;;4.50;1.88;;;9.80;50.40;;;;;;4985287;28;20545;-79
2023/03/10 11:39:08;;;;;;;5.28;2.20;;;9.80;49.90;;;;;;4968361;28;20038;-78
2023/03/10 11:41:40;;;;;;;2.80;2.03;;;9.70;49.60;;;;;;4970739;28;20030;-78
2023/03/10 11:44:20;;;;;;;4.38;2.10;;;9.70;49.30;;;;;;4985274;28;20061;-78
2023/03/10 11:47:01;;;;;;;3.35;2.30;;;9.70;48.90;;;;;;4984218;28;20034;-78
2023/03/10 11:49:34;;;;;;;4.85;2.08;;;9.70;48.70;;;;;;4969564;28;20034;-82
2023/03/10 11:52:06;;;;;;;2.50;1.85;;;9.60;48.40;;;;;;5042350;28;20131;-84
2023/03/10 11:54:53;;;;;;;3.13;1.70;;;9.60;48.20;;;;;;5050927;28;20045;-77
2023/03/10 11:57:40;;;;;;;2.28;1.58;;;9.50;48.00;;;;;;5064796;28;20064;-79
2023/03/10 12:00:16;;;;;;;2.95;1.80;;;9.50;47.90;;;;;;5048625;28;20029;-78
2023/03/10 12:02:44;;;;;;;3.15;1.90;;;9.40;47.70;;;;;;5057331;28;20067;-77
2023/03/10 12:05:16;;;;;;;1.77;1.67;;;9.40;47.80;;;;;;5046125;28;20268;-77
2023/03/10 12:07:45;;;;;;;4.45;1.98;;;9.40;47.90;;;;;;5062788;28;20033;-81
2023/03/10 12:10:11;;;;;;;2.63;2.15;;;9.30;47.90;;;;;;5052156;28;20569;-79
2023/03/10 12:12:41;;;;;;;3.13;2.20;;;9.30;47.90;;;;;;5033980;28;20041;-78
2023/03/10 12:15:24;;;;;;;4.28;2.22;;;9.30;47.80;;;;;;5058655;28;20599;-83
2023/03/10 12:17:52;;;;;;;3.63;2.00;;;9.20;47.80;;;;;;5031133;28;20630;-76
2023/03/10 12:20:18;;;;;;;3.72;2.20;;;9.20;47.90;;;;;;5058162;28;20471;-76
2023/03/10 12:22:56;;;;;;;2.95;1.90;;;9.10;47.80;;;;;;5019071;28;20041;-83
2023/03/10 12:25:28;;;;;;;5.38;2.30;;;9.10;47.70;;;;;;5001685;28;20041;-82
2023/03/10 12:28:16;;;;;;;4.32;2.40;;;9.00;48.20;;;;;;5056741;28;20041;-82
2023/03/10 12:30:59;;;;;;;3.50;2.17;;;9.00;48.70;;;;;;5040702;28;20037;-83
2023/03/10 12:33:36;;;;;;;3.95;2.00;;;9.00;49.20;;;;;;5033844;28;20036;-78
2023/03/10 12:36:02;;;;;;;3.08;2.10;;;9.00;50.60;;;;;;5043847;28;20040;-79
2023/03/10 12:38:56;;;;;;;2.47;1.80;;;8.90;51.10;;;;;;5044661;28;20078;-83
2023/03/10 12:41:25;;;;;;;4.90;2.22;;;8.90;50.70;;;;;;5017166;28;20194;-82
2023/03/10 12:43:59;;;;;;;2.42;1.60;;;8.90;50.70;;;;;;5057375;28;20037;-80
2023/03/10 12:46:47;;;;;;;4.72;2.13;;;8.90;51.10;;;;;;5034602;28;20143;-81
2023/03/10 12:49:16;;;;;;;4.05;2.10;;;8.90;51.80;;;;;;5046340;28;20048;-76
2023/03/10 12:51:48;;;;;;;5.15;2.55;;;8.90;53.00;;;;;;5051877;28;20069;-84
2023/03/10 12:54:20;;;;;;;5.35;2.80;;;8.80;52.50;;;;;;5033305;28;20039;-78
2023/03/10 12:57:01;;;;;;;3.65;2.53;;;8.80;51.80;;;;;;5055573;28;20033;-90
2023/03/10 12:59:42;;;;;;;4.28;2.47;;;8.80;50.50;;;;;;5034823;28;20130;-80
2023/03/10 13:02:27;;;;;;;7.15;2.53;;;8.70;54.30;;;;;;5054471;28;20586;-77
2023/03/10 13:05:02;;;;;;;6.50;2.22;;;8.70;55.00;;;;;;5061533;28;20415;-89
2023/03/10 13:07:29;;;;;;;2.90;2.15;;;8.70;55.10;;;;;;5063296;28;20044;-82
2023/03/10 13:09:55;;;;;;;2.67;2.17;;;8.70;52.10;;;;;;5056041;28;20039;-78